URKK 272100Z VRB01MPS CAVOK 16/11 Q1007 R23L/CLRD70 NOSIG RMK QFE752
QNH:(hPa/inHg/mmHg)1007 / 29.74 / 755
QFE:(hPa/inHg/mmHg)1003 / 29.61 / 752
Temperature16
Dew Point11
Visibility> 10000
WeatherCAVOK
Cloud Cover
Transition Altitude4000 ft.
Transition LevelFL60
SQUAWK